Time;durP1;ratioP1;P1;durP2;ratioP2;P2;SDS_P1;SDS_P2;PMS_P1;PMS_P2;Temp;Humidity;BMP_temperature;BMP_pressure;BME280_temperature;BME280_humidity;BME280_pressure;Samples;Min_cycle;Max_cycle;Signal;HPM_P1;HPM_P2
2021/10/14 00:01:47;;;;;;;4.97;2.33;;;7.30;99.90;;;;;;5095661;28;20560;-78
2021/10/14 00:04:16;;;;;;;7.55;2.70;;;7.20;99.90;;;;;;5094574;28;20051;-80
2021/10/14 00:06:45;;;;;;;5.30;2.75;;;7.20;99.90;;;;;;5076451;28;20139;-78
2021/10/14 00:09:12;;;;;;;4.50;2.60;;;7.30;99.90;;;;;;5075627;28;20124;-79
2021/10/14 00:11:40;;;;;;;5.57;2.80;;;7.20;99.90;;;;;;5075317;28;20094;-79
2021/10/14 00:14:07;;;;;;;4.68;2.70;;;7.30;99.90;;;;;;5078550;28;20464;-79
2021/10/14 00:16:34;;;;;;;3.90;2.30;;;7.20;99.90;;;;;;5083499;28;20127;-79
2021/10/14 00:19:02;;;;;;;4.32;2.58;;;7.20;99.90;;;;;;5095604;28;20146;-79
2021/10/14 00:21:31;;;;;;;4.80;2.60;;;7.10;99.90;;;;;;5093685;28;20143;-77
2021/10/14 00:23:58;;;;;;;4.80;2.58;;;7.00;99.90;;;;;;5095540;28;20129;-78
2021/10/14 00:26:25;;;;;;;4.60;2.85;;;7.00;99.90;;;;;;5095332;28;20058;-79
2021/10/14 00:28:52;;;;;;;6.50;2.60;;;6.90;99.90;;;;;;5095510;28;20135;-76
2021/10/14 00:31:19;;;;;;;4.60;2.50;;;6.90;99.90;;;;;;5095173;28;20151;-79
2021/10/14 00:33:46;;;;;;;5.15;2.75;;;6.90;99.90;;;;;;5085786;28;20131;-76
2021/10/14 00:36:13;;;;;;;4.40;2.65;;;6.80;99.90;;;;;;5076425;28;20135;-79
2021/10/14 00:38:41;;;;;;;5.35;2.65;;;6.70;99.90;;;;;;5074960;28;20139;-78
2021/10/14 00:41:08;;;;;;;5.38;2.90;;;6.60;99.90;;;;;;5074802;28;20593;-78
2021/10/14 00:43:36;;;;;;;5.05;2.75;;;6.60;99.90;;;;;;5074640;28;20601;-79
2021/10/14 00:46:03;;;;;;;5.22;2.53;;;6.60;99.90;;;;;;5074938;28;20076;-78
2021/10/14 00:48:30;;;;;;;5.60;2.50;;;6.60;99.90;;;;;;5074985;28;20140;-78
2021/10/14 00:50:57;;;;;;;4.80;2.47;;;6.60;99.90;;;;;;5076279;28;20516;-79
2021/10/14 00:53:24;;;;;;;5.13;2.90;;;6.60;99.90;;;;;;5078866;28;20134;-76
2021/10/14 00:55:52;;;;;;;4.63;2.35;;;6.60;99.90;;;;;;5094610;28;20136;-77
2021/10/14 00:58:19;;;;;;;4.78;2.60;;;6.60;99.90;;;;;;5095868;28;20139;-77
2021/10/14 01:00:46;;;;;;;5.28;2.53;;;6.60;99.90;;;;;;5095947;28;20127;-77
2021/10/14 01:03:13;;;;;;;6.45;2.88;;;6.60;99.90;;;;;;5092237;28;20128;-77
2021/10/14 01:05:40;;;;;;;9.30;3.00;;;6.60;99.90;;;;;;5077547;28;20132;-77
2021/10/14 01:08:07;;;;;;;5.85;3.10;;;6.60;99.90;;;;;;5077351;28;20135;-78
2021/10/14 01:10:35;;;;;;;4.78;2.95;;;6.50;99.90;;;;;;5075998;28;20132;-77
2021/10/14 01:13:04;;;;;;;4.85;2.78;;;6.50;99.90;;;;;;5075481;28;20564;-80
2021/10/14 01:15:31;;;;;;;5.00;2.95;;;6.50;99.90;;;;;;5082090;28;20123;-80
2021/10/14 01:17:58;;;;;;;5.63;2.80;;;6.50;99.90;;;;;;5074644;28;20474;-79
2021/10/14 01:20:27;;;;;;;4.88;2.78;;;6.50;99.90;;;;;;5082787;28;20126;-78
2021/10/14 01:22:54;;;;;;;6.90;3.10;;;6.50;99.90;;;;;;5094590;28;20135;-76
2021/10/14 01:25:22;;;;;;;5.60;2.80;;;6.50;99.90;;;;;;5080831;28;20076;-79
2021/10/14 01:27:49;;;;;;;4.97;2.90;;;6.50;99.90;;;;;;5074152;28;20553;-78
2021/10/14 01:30:17;;;;;;;5.43;2.90;;;6.60;99.90;;;;;;5074139;28;20136;-78
2021/10/14 01:32:47;;;;;;;4.97;2.90;;;6.60;99.90;;;;;;5073992;28;20135;-79
2021/10/14 01:35:14;;;;;;;5.80;3.15;;;6.60;99.90;;;;;;5080068;28;20132;-78
2021/10/14 01:37:43;;;;;;;5.68;2.90;;;6.60;99.90;;;;;;5073795;28;20576;-79
2021/10/14 01:40:12;;;;;;;5.55;3.08;;;6.60;99.90;;;;;;5073649;28;20135;-78
2021/10/14 01:42:39;;;;;;;5.43;2.83;;;6.60;99.90;;;;;;5073754;28;20131;-80
2021/10/14 01:45:08;;;;;;;4.97;2.97;;;6.60;99.90;;;;;;5086529;28;20134;-77
2021/10/14 01:47:36;;;;;;;6.28;2.92;;;6.60;99.90;;;;;;5093570;28;20568;-78
2021/10/14 01:50:04;;;;;;;4.80;2.50;;;6.60;99.90;;;;;;5091879;28;20470;-79
2021/10/14 01:52:31;;;;;;;5.30;2.90;;;6.70;99.90;;;;;;5093529;28;20144;-78
2021/10/14 01:54:59;;;;;;;5.45;2.90;;;6.70;99.90;;;;;;5093597;28;20131;-81
2021/10/14 01:57:27;;;;;;;5.40;2.92;;;6.70;99.90;;;;;;5093687;28;20130;-77
2021/10/14 01:59:54;;;;;;;4.95;2.88;;;6.70;99.90;;;;;;5093582;28;20098;-78
2021/10/14 02:02:21;;;;;;;5.22;2.70;;;6.70;99.90;;;;;;5092813;28;20127;-78
2021/10/14 02:04:48;;;;;;;5.32;2.90;;;6.70;99.90;;;;;;5084505;28;20124;-79
2021/10/14 02:07:15;;;;;;;6.60;2.88;;;6.60;99.90;;;;;;5072961;28;20127;-78
2021/10/14 02:09:42;;;;;;;5.68;3.08;;;6.60;99.90;;;;;;5073064;28;20076;-81
2021/10/14 02:12:10;;;;;;;5.80;3.08;;;6.50;99.90;;;;;;5073008;28;20127;-79
2021/10/14 02:14:37;;;;;;;5.60;3.00;;;6.40;99.90;;;;;;5080276;28;20084;-77
2021/10/14 02:17:04;;;;;;;6.20;2.60;;;6.30;99.90;;;;;;5073137;28;20045;-76
2021/10/14 02:19:31;;;;;;;5.65;2.90;;;6.30;99.90;;;;;;5074079;28;20127;-76
2021/10/14 02:21:58;;;;;;;5.60;3.08;;;6.20;99.90;;;;;;5072842;28;20136;-76
2021/10/14 02:24:25;;;;;;;5.90;3.08;;;6.20;99.90;;;;;;5081515;28;20132;-77
2021/10/14 02:26:52;;;;;;;4.75;2.75;;;6.20;99.90;;;;;;5093010;28;20818;-79
2021/10/14 02:29:21;;;;;;;7.20;2.60;;;6.20;99.90;;;;;;5093188;28;20183;-79
2021/10/14 02:31:48;;;;;;;4.65;2.58;;;6.10;99.90;;;;;;5093108;28;20138;-79
2021/10/14 02:34:15;;;;;;;5.63;2.70;;;6.10;99.90;;;;;;5087504;28;20143;-77
2021/10/14 02:36:42;;;;;;;4.60;2.70;;;6.10;99.90;;;;;;5072929;28;20128;-77
2021/10/14 02:39:09;;;;;;;5.93;2.72;;;6.10;99.90;;;;;;5072821;28;20131;-76
2021/10/14 02:41:36;;;;;;;5.50;2.85;;;6.10;99.90;;;;;;5072596;28;20137;-81
2021/10/14 02:44:03;;;;;;;4.72;2.60;;;6.10;99.90;;;;;;5073655;28;20131;-79
2021/10/14 02:46:32;;;;;;;4.85;2.58;;;6.10;99.90;;;;;;5092797;28;20119;-79
2021/10/14 02:48:59;;;;;;;4.50;2.50;;;6.20;99.90;;;;;;5092352;28;20142;-79
2021/10/14 02:51:26;;;;;;;6.50;2.65;;;6.20;99.90;;;;;;5072584;28;20143;-78
2021/10/14 02:53:53;;;;;;;5.95;2.53;;;6.10;99.90;;;;;;5072536;28;20143;-77
2021/10/14 02:56:20;;;;;;;4.88;2.75;;;6.10;99.90;;;;;;5092575;28;20139;-77
2021/10/14 02:58:47;;;;;;;5.32;2.63;;;6.10;99.90;;;;;;5092464;28;20131;-79
2021/10/14 03:01:14;;;;;;;5.18;2.60;;;6.00;99.90;;;;;;5080764;28;20048;-80
2021/10/14 03:03:43;;;;;;;6.03;2.58;;;6.00;99.90;;;;;;5081537;28;20196;-77
2021/10/14 03:06:10;;;;;;;5.70;2.78;;;6.00;99.90;;;;;;5071982;28;20044;-78
2021/10/14 03:08:37;;;;;;;5.70;2.85;;;5.90;99.90;;;;;;5068208;28;20135;-78
2021/10/14 03:11:04;;;;;;;5.70;2.83;;;5.90;99.90;;;;;;5068567;28;20134;-78
2021/10/14 03:13:31;;;;;;;5.78;3.20;;;5.80;99.90;;;;;;5076937;28;20557;-79
2021/10/14 03:15:58;;;;;;;5.60;2.97;;;5.70;99.90;;;;;;5071798;28;20131;-79
2021/10/14 03:18:25;;;;;;;5.72;2.97;;;5.70;99.90;;;;;;5068726;28;20549;-80
2021/10/14 03:20:54;;;;;;;5.15;2.70;;;5.60;99.90;;;;;;5069886;28;20049;-80
2021/10/14 03:23:21;;;;;;;5.25;2.90;;;5.60;99.90;;;;;;5067944;28;20462;-78
2021/10/14 03:25:48;;;;;;;6.18;2.80;;;5.50;99.90;;;;;;5083093;28;20066;-77
2021/10/14 03:28:15;;;;;;;5.25;2.80;;;5.50;99.90;;;;;;5088930;28;20170;-76
2021/10/14 03:30:42;;;;;;;5.43;3.10;;;5.40;99.90;;;;;;5088822;28;20134;-78
2021/10/14 03:33:09;;;;;;;6.03;2.80;;;5.40;99.90;;;;;;5088775;28;20052;-79
2021/10/14 03:35:36;;;;;;;6.68;2.63;;;5.40;99.90;;;;;;5073842;28;20135;-80
2021/10/14 03:38:05;;;;;;;5.50;2.67;;;5.40;99.90;;;;;;5068666;28;20131;-79
2021/10/14 03:40:32;;;;;;;6.15;2.67;;;5.40;99.90;;;;;;5068375;28;20135;-78
2021/10/14 03:42:59;;;;;;;4.72;2.70;;;5.40;99.90;;;;;;5068422;28;20153;-81
2021/10/14 03:45:26;;;;;;;5.05;2.70;;;5.40;99.90;;;;;;5068915;28;20561;-79
2021/10/14 03:47:53;;;;;;;7.75;2.95;;;5.50;99.90;;;;;;5068700;28;20147;-77
2021/10/14 03:50:20;;;;;;;5.80;3.05;;;5.50;99.90;;;;;;5069285;28;20070;-78
2021/10/14 03:52:47;;;;;;;5.45;2.60;;;5.50;99.90;;;;;;5068571;28;20577;-77
2021/10/14 03:55:16;;;;;;;5.70;2.92;;;5.50;99.90;;;;;;5079377;28;20143;-78
2021/10/14 03:57:43;;;;;;;5.93;2.63;;;5.50;99.90;;;;;;5088511;28;20143;-77
2021/10/14 04:00:11;;;;;;;5.07;2.72;;;5.50;99.90;;;;;;5088779;28;20134;-77
2021/10/14 04:02:39;;;;;;;5.88;2.90;;;5.60;99.90;;;;;;5091321;28;20109;-79
2021/10/14 04:05:07;;;;;;;6.45;2.60;;;5.60;99.90;;;;;;5090691;28;20123;-76
2021/10/14 04:07:34;;;;;;;5.68;2.60;;;5.60;99.90;;;;;;5091872;28;20048;-78
2021/10/14 04:10:01;;;;;;;5.68;2.90;;;5.50;99.90;;;;;;5090326;28;20123;-76
2021/10/14 04:12:30;;;;;;;5.72;2.80;;;5.60;99.90;;;;;;5071679;28;20059;-77
2021/10/14 04:14:57;;;;;;;5.50;2.60;;;5.60;99.90;;;;;;5081057;28;20127;-79
2021/10/14 04:17:24;;;;;;;4.60;2.50;;;5.60;99.90;;;;;;5091674;28;20591;-77
2021/10/14 04:19:51;;;;;;;6.78;2.55;;;5.60;99.90;;;;;;5081735;28;20549;-77
2021/10/14 04:22:19;;;;;;;5.63;3.28;;;5.60;99.90;;;;;;5071348;28;20139;-78
2021/10/14 04:24:47;;;;;;;4.55;2.58;;;5.60;99.90;;;;;;5078982;28;20055;-77
2021/10/14 04:27:14;;;;;;;5.10;2.53;;;5.70;99.90;;;;;;5091569;28;20489;-75
2021/10/14 04:29:43;;;;;;;5.70;2.63;;;5.60;99.90;;;;;;5090895;28;20138;-77
2021/10/14 04:32:12;;;;;;;4.50;2.40;;;5.70;99.90;;;;;;5090782;28;20050;-78
2021/10/14 04:34:39;;;;;;;5.20;2.50;;;5.70;99.90;;;;;;5092037;28;20541;-76
2021/10/14 04:37:07;;;;;;;5.43;2.50;;;5.60;99.90;;;;;;5095193;28;20128;-76
2021/10/14 04:39:35;;;;;;;4.85;2.60;;;5.60;99.90;;;;;;5095458;28;20138;-75
2021/10/14 04:42:02;;;;;;;5.35;2.80;;;5.60;99.90;;;;;;5095220;28;20592;-79
2021/10/14 04:44:29;;;;;;;7.10;2.80;;;5.60;99.90;;;;;;5094877;28;20449;-76
2021/10/14 04:46:57;;;;;;;5.03;2.40;;;5.60;99.90;;;;;;5094495;28;20472;-76
2021/10/14 04:49:25;;;;;;;5.20;2.80;;;5.60;99.90;;;;;;5094772;28;20245;-75
2021/10/14 04:51:52;;;;;;;4.78;2.58;;;5.60;99.90;;;;;;5094801;28;20131;-76
2021/10/14 04:54:19;;;;;;;4.88;2.63;;;5.60;99.90;;;;;;5094992;28;20134;-76
2021/10/14 04:56:46;;;;;;;5.68;3.08;;;5.60;99.90;;;;;;5094885;28;20127;-76
2021/10/14 04:59:13;;;;;;;6.18;2.70;;;5.60;99.90;;;;;;5094845;28;20068;-77
2021/10/14 05:01:40;;;;;;;7.30;3.22;;;5.60;99.90;;;;;;5094946;28;20456;-76
2021/10/14 05:04:08;;;;;;;6.07;2.72;;;5.60;99.90;;;;;;5094609;28;20139;-76
2021/10/14 05:06:36;;;;;;;6.68;3.00;;;5.60;99.90;;;;;;5094769;28;20456;-76
2021/10/14 05:09:04;;;;;;;5.95;2.65;;;5.50;99.90;;;;;;5094446;28;20044;-75
2021/10/14 05:11:31;;;;;;;6.38;3.10;;;5.60;99.90;;;;;;5094625;28;20135;-76
2021/10/14 05:13:58;;;;;;;6.15;3.20;;;5.50;99.90;;;;;;5094458;28;20134;-75
2021/10/14 05:16:25;;;;;;;5.55;3.10;;;5.50;99.90;;;;;;5094549;28;20127;-76
2021/10/14 05:18:52;;;;;;;5.13;3.05;;;5.50;99.90;;;;;;5094145;28;20048;-76
2021/10/14 05:21:21;;;;;;;6.18;2.83;;;5.50;99.90;;;;;;5094272;28;20566;-77
2021/10/14 05:23:48;;;;;;;5.70;2.90;;;5.40;99.90;;;;;;5094336;28;20131;-77
2021/10/14 05:26:15;;;;;;;5.75;2.90;;;5.40;99.90;;;;;;5094379;28;20136;-75
2021/10/14 05:28:42;;;;;;;5.97;3.15;;;5.40;99.90;;;;;;5094250;28;20553;-75
2021/10/14 05:31:09;;;;;;;5.57;3.00;;;5.40;99.90;;;;;;5093607;28;20130;-77
2021/10/14 05:33:37;;;;;;;5.47;2.80;;;5.50;99.90;;;;;;5093613;28;20498;-76
2021/10/14 05:36:05;;;;;;;5.38;3.05;;;5.50;99.90;;;;;;5094023;28;20412;-78
2021/10/14 05:38:34;;;;;;;5.95;3.03;;;5.60;99.90;;;;;;5093927;28;20584;-75
2021/10/14 05:41:01;;;;;;;5.85;2.63;;;5.60;99.90;;;;;;5094034;28;20139;-77
2021/10/14 05:43:28;;;;;;;6.70;3.40;;;5.60;99.90;;;;;;5093847;28;20596;-77
2021/10/14 05:45:55;;;;;;;5.70;2.70;;;5.70;99.90;;;;;;5092639;28;20132;-77
2021/10/14 05:48:22;;;;;;;5.07;2.63;;;5.70;99.90;;;;;;5093687;28;20138;-78
2021/10/14 05:50:49;;;;;;;5.75;3.03;;;5.70;99.90;;;;;;5093775;28;20135;-77
2021/10/14 05:53:16;;;;;;;9.38;3.40;;;5.70;99.90;;;;;;5093810;28;20054;-76
2021/10/14 05:55:47;;;;;;;5.88;2.97;;;5.70;99.90;;;;;;5093787;28;20455;-76
2021/10/14 05:58:14;;;;;;;7.50;2.80;;;5.70;99.90;;;;;;5093844;28;20044;-77
2021/10/14 06:00:42;;;;;;;5.85;3.17;;;5.60;99.90;;;;;;5093882;28;20068;-77
2021/10/14 06:03:09;;;;;;;7.38;3.00;;;5.60;99.90;;;;;;5093530;28;20139;-77
2021/10/14 06:05:36;;;;;;;5.65;3.00;;;5.60;99.90;;;;;;5093544;28;20127;-75
2021/10/14 06:08:03;;;;;;;5.57;2.88;;;5.50;99.90;;;;;;5093475;28;20243;-79
2021/10/14 06:10:30;;;;;;;6.30;2.80;;;5.50;99.90;;;;;;5093344;28;20126;-78
2021/10/14 06:12:59;;;;;;;4.35;2.50;;;5.40;99.90;;;;;;5093087;28;20462;-76
2021/10/14 06:15:26;;;;;;;5.38;3.08;;;5.50;99.90;;;;;;5093339;28;20241;-76
2021/10/14 06:17:54;;;;;;;6.00;3.17;;;5.50;99.90;;;;;;5093299;28;20501;-76
2021/10/14 06:20:21;;;;;;;5.20;2.60;;;5.50;99.90;;;;;;5093274;28;20127;-78
2021/10/14 06:22:48;;;;;;;4.57;2.78;;;5.60;99.90;;;;;;5092917;28;20136;-77
2021/10/14 06:25:15;;;;;;;5.65;2.63;;;5.60;99.90;;;;;;5093136;28;20135;-76
2021/10/14 06:27:43;;;;;;;6.30;3.10;;;5.60;99.90;;;;;;5092908;28;20123;-75
2021/10/14 06:30:11;;;;;;;5.53;3.00;;;5.70;99.90;;;;;;5093166;28;20132;-78
2021/10/14 06:32:39;;;;;;;6.68;2.97;;;5.70;99.90;;;;;;5094294;28;20127;-77
2021/10/14 06:35:07;;;;;;;5.50;2.58;;;5.70;99.90;;;;;;5092908;28;20528;-77
2021/10/14 06:37:34;;;;;;;4.93;2.90;;;5.70;99.90;;;;;;5092881;28;20044;-77
2021/10/14 06:40:01;;;;;;;5.78;2.90;;;5.70;99.90;;;;;;5092782;28;20152;-76
2021/10/14 06:42:29;;;;;;;5.03;2.97;;;5.80;99.90;;;;;;5092982;28;20302;-77
2021/10/14 06:44:56;;;;;;;7.72;3.20;;;5.80;99.90;;;;;;5092751;28;20152;-78
2021/10/14 06:47:25;;;;;;;5.65;3.10;;;5.90;99.90;;;;;;5092785;28;20130;-76
2021/10/14 06:49:52;;;;;;;6.55;3.28;;;5.80;99.90;;;;;;5092565;28;20146;-79
2021/10/14 06:52:19;;;;;;;6.97;3.22;;;5.80;99.90;;;;;;5091300;28;20143;-76
2021/10/14 06:54:46;;;;;;;5.32;3.10;;;5.90;99.90;;;;;;5072129;28;20553;-77
2021/10/14 06:57:13;;;;;;;7.40;3.30;;;5.90;99.90;;;;;;5072120;28;20136;-77
2021/10/14 06:59:40;;;;;;;5.85;3.20;;;5.90;99.90;;;;;;5072205;28;20124;-76
2021/10/14 07:02:07;;;;;;;6.85;3.35;;;5.90;99.90;;;;;;5072252;28;20135;-77
2021/10/14 07:04:36;;;;;;;6.25;3.25;;;5.90;99.90;;;;;;5071832;28;20520;-77
2021/10/14 07:07:03;;;;;;;5.95;2.90;;;5.90;99.90;;;;;;5072600;28;20123;-77
2021/10/14 07:09:30;;;;;;;6.55;3.55;;;5.90;99.90;;;;;;5071903;28;20138;-77
2021/10/14 07:11:59;;;;;;;6.80;3.30;;;5.90;99.90;;;;;;5071830;28;20131;-76
2021/10/14 07:14:26;;;;;;;6.32;3.50;;;5.90;99.90;;;;;;5071864;28;20053;-77
2021/10/14 07:16:53;;;;;;;7.60;3.58;;;6.00;99.90;;;;;;5072829;28;20132;-79
2021/10/14 07:19:21;;;;;;;5.97;3.33;;;6.00;99.90;;;;;;5071828;28;20058;-78
2021/10/14 07:21:49;;;;;;;6.57;3.25;;;6.00;99.90;;;;;;5072817;28;20098;-79
2021/10/14 07:24:17;;;;;;;6.05;3.33;;;6.10;99.90;;;;;;5092063;28;20131;-79
2021/10/14 07:26:44;;;;;;;7.15;3.60;;;6.10;99.90;;;;;;5091952;28;20489;-79
2021/10/14 07:29:11;;;;;;;6.35;3.50;;;6.20;99.90;;;;;;5091967;28;20139;-76
2021/10/14 07:31:40;;;;;;;6.65;3.50;;;6.30;99.90;;;;;;5092191;28;20390;-77
2021/10/14 07:34:07;;;;;;;5.90;3.45;;;6.30;99.90;;;;;;5091798;28;20044;-80
2021/10/14 07:36:34;;;;;;;6.57;3.60;;;6.30;99.90;;;;;;5090125;28;20126;-78
2021/10/14 07:39:03;;;;;;;7.30;3.90;;;6.30;99.90;;;;;;5091839;28;20561;-79
2021/10/14 07:41:30;;;;;;;7.80;4.03;;;6.30;99.90;;;;;;5091844;28;20087;-76
2021/10/14 07:43:57;;;;;;;9.10;4.40;;;6.30;99.90;;;;;;5091877;28;20135;-77
2021/10/14 07:46:24;;;;;;;8.40;4.03;;;6.30;99.90;;;;;;5091688;28;20451;-80
2021/10/14 07:48:51;;;;;;;6.82;4.20;;;6.40;99.90;;;;;;5091645;28;20136;-79
2021/10/14 07:51:19;;;;;;;7.28;3.90;;;6.40;99.90;;;;;;5090083;28;20126;-79
2021/10/14 07:53:46;;;;;;;9.32;3.83;;;6.40;99.90;;;;;;5091860;28;20044;-79
2021/10/14 07:56:14;;;;;;;7.05;3.83;;;6.50;99.90;;;;;;5092093;28;20048;-78
2021/10/14 07:58:41;;;;;;;6.05;3.60;;;6.60;99.90;;;;;;5091929;28;20125;-80
2021/10/14 08:01:11;;;;;;;8.55;4.03;;;6.70;99.90;;;;;;5091645;28;20565;-76
2021/10/14 08:03:39;;;;;;;8.35;4.13;;;6.80;99.90;;;;;;5091833;28;20578;-80
2021/10/14 08:06:06;;;;;;;7.15;3.97;;;6.90;99.90;;;;;;5089971;28;20036;-77
2021/10/14 08:08:33;;;;;;;7.22;3.55;;;7.00;99.90;;;;;;5092231;28;20087;-79
2021/10/14 08:11:00;;;;;;;7.30;3.28;;;7.10;99.90;;;;;;5095767;28;20087;-78
2021/10/14 08:13:29;;;;;;;7.10;3.60;;;7.20;99.90;;;;;;5095611;28;20043;-75
2021/10/14 08:15:56;;;;;;;7.85;4.00;;;7.30;99.90;;;;;;5095625;28;20142;-78
2021/10/14 08:18:24;;;;;;;7.60;3.92;;;7.40;99.90;;;;;;5096641;28;20130;-79
2021/10/14 08:20:54;;;;;;;6.45;3.58;;;7.50;99.90;;;;;;5086972;28;20710;-76
2021/10/14 08:23:22;;;;;;;6.97;3.90;;;7.50;99.90;;;;;;5075279;28;20045;-79
2021/10/14 08:25:49;;;;;;;8.07;4.18;;;7.50;99.90;;;;;;5075063;28;20139;-78
2021/10/14 08:28:17;;;;;;;7.45;4.25;;;7.60;99.90;;;;;;5074861;28;20563;-78
2021/10/14 08:30:47;;;;;;;8.20;4.55;;;7.60;99.90;;;;;;5075358;28;20152;-77
2021/10/14 08:33:15;;;;;;;8.48;4.07;;;7.60;99.90;;;;;;5075206;28;20068;-79
2021/10/14 08:35:42;;;;;;;7.78;4.00;;;7.60;99.90;;;;;;5085353;28;20130;-80
2021/10/14 08:38:11;;;;;;;8.43;4.00;;;7.70;99.90;;;;;;5095192;28;20071;-79
2021/10/14 08:40:40;;;;;;;7.80;4.20;;;7.70;99.90;;;;;;5095132;28;20164;-79
2021/10/14 08:43:12;;;;;;;8.18;4.10;;;7.70;99.90;;;;;;5094847;28;20138;-80
2021/10/14 08:45:42;;;;;;;6.90;4.00;;;7.70;99.90;;;;;;5095528;28;20123;-78
2021/10/14 08:48:12;;;;;;;7.90;3.75;;;7.80;99.90;;;;;;5094737;28;20564;-80
2021/10/14 08:50:42;;;;;;;6.22;3.60;;;7.80;99.90;;;;;;5082404;28;20139;-79
2021/10/14 08:53:10;;;;;;;7.80;3.63;;;7.90;99.90;;;;;;5074497;28;20140;-79
2021/10/14 08:55:38;;;;;;;8.00;3.72;;;7.90;99.90;;;;;;5074434;28;20131;-79
2021/10/14 08:58:07;;;;;;;7.68;4.00;;;8.00;99.90;;;;;;5074264;28;20049;-77
2021/10/14 09:00:35;;;;;;;7.03;3.63;;;8.10;99.90;;;;;;5074454;28;20071;-78
2021/10/14 09:03:25;;;;;;;6.55;3.65;;;8.10;99.90;;;;;;5074362;28;20052;-78
2021/10/14 09:05:52;;;;;;;7.57;4.03;;;8.20;99.90;;;;;;5075332;28;20102;-77
2021/10/14 09:08:34;;;;;;;7.63;4.63;;;8.20;99.90;;;;;;5081321;28;20136;-79
2021/10/14 09:11:06;;;;;;;6.63;3.80;;;8.30;99.90;;;;;;5094917;28;20052;-76
2021/10/14 09:13:33;;;;;;;7.88;4.03;;;8.40;99.90;;;;;;5088231;28;20127;-79
2021/10/14 09:16:30;;;;;;;7.00;3.88;;;8.50;99.90;;;;;;5074114;28;20131;-80
2021/10/14 09:19:16;;;;;;;7.00;3.55;;;8.60;99.90;;;;;;5074356;28;20048;-78
2021/10/14 09:21:47;;;;;;;10.35;3.65;;;8.60;99.90;;;;;;5074080;28;20052;-80
2021/10/14 09:24:27;;;;;;;7.25;3.88;;;8.70;99.90;;;;;;5074064;28;20136;-77
2021/10/14 09:26:55;;;;;;;8.75;3.67;;;8.70;99.90;;;;;;5074959;28;20119;-77
2021/10/14 09:29:27;;;;;;;8.05;3.58;;;8.80;99.90;;;;;;5073879;28;20098;-78
2021/10/14 09:31:58;;;;;;;7.47;4.03;;;8.90;99.90;;;;;;5073901;28;20048;-80
2021/10/14 09:34:38;;;;;;;6.68;3.20;;;9.00;99.90;;;;;;5082147;28;20136;-79
2021/10/14 09:37:26;;;;;;;7.63;3.83;;;9.10;99.90;;;;;;5093897;28;20138;-79
2021/10/14 09:39:58;;;;;;;7.47;4.10;;;9.20;99.90;;;;;;5093987;28;20143;-79
2021/10/14 09:42:51;;;;;;;6.32;3.30;;;9.30;99.30;;;;;;5093900;28;20131;-77
2021/10/14 09:45:24;;;;;;;7.35;3.30;;;9.40;99.30;;;;;;5093853;28;20052;-78
2021/10/14 09:48:11;;;;;;;6.95;3.47;;;9.50;99.40;;;;;;5093945;28;20109;-80
2021/10/14 09:50:42;;;;;;;8.18;2.97;;;9.60;99.00;;;;;;5092768;28;20075;-77
2021/10/14 09:53:12;;;;;;;5.13;3.00;;;9.70;98.90;;;;;;5093622;28;20127;-79
2021/10/14 09:55:40;;;;;;;5.90;2.80;;;9.70;98.80;;;;;;5093611;28;20044;-77
2021/10/14 09:58:07;;;;;;;6.22;3.05;;;9.80;98.50;;;;;;5093677;28;20123;-77
2021/10/14 10:00:36;;;;;;;6.75;3.22;;;9.90;98.30;;;;;;5093781;28;20123;-79
2021/10/14 10:03:05;;;;;;;7.15;3.05;;;10.00;97.80;;;;;;5091917;28;20464;-78
2021/10/14 10:05:33;;;;;;;5.90;2.53;;;10.10;97.50;;;;;;5094222;28;20607;-78
2021/10/14 10:08:04;;;;;;;5.68;2.78;;;10.20;97.40;;;;;;5095100;28;20323;-79
2021/10/14 10:10:32;;;;;;;6.13;2.45;;;10.20;97.20;;;;;;5089303;28;20139;-77
2021/10/14 10:13:03;;;;;;;5.03;2.38;;;10.30;96.60;;;;;;5089479;28;20134;-77
2021/10/14 10:15:41;;;;;;;5.38;2.33;;;10.40;96.40;;;;;;5089612;28;20147;-76
2021/10/14 10:18:41;;;;;;;4.07;2.28;;;10.40;96.20;;;;;;5083139;28;20132;-78
2021/10/14 10:21:43;;;;;;;6.05;2.28;;;10.50;95.10;;;;;;5068733;28;20048;-79
2021/10/14 10:24:34;;;;;;;4.38;2.20;;;10.50;95.10;;;;;;5069292;28;20105;-79
2021/10/14 10:27:07;;;;;;;4.68;2.30;;;10.60;94.70;;;;;;5069515;28;20044;-78
2021/10/14 10:29:42;;;;;;;5.03;2.38;;;10.70;94.60;;;;;;5069515;28;20040;-75
2021/10/14 10:32:22;;;;;;;5.97;2.42;;;10.70;94.80;;;;;;5068910;28;20128;-78
2021/10/14 10:37:44;;;;;;;5.38;2.10;;;10.90;94.40;;;;;;5068509;28;20045;-78
2021/10/14 10:40:18;;;;;;;5.68;2.17;;;10.90;94.30;;;;;;5068736;28;20044;-79
2021/10/14 10:42:52;;;;;;;5.57;2.10;;;11.10;94.20;;;;;;5069063;28;20131;-80
2021/10/14 10:45:23;;;;;;;5.38;2.20;;;11.10;93.40;;;;;;5068789;28;20394;-79
2021/10/14 10:47:59;;;;;;;3.80;1.70;;;11.20;92.80;;;;;;5069588;28;20576;-78
2021/10/14 10:50:44;;;;;;;4.30;2.10;;;11.20;92.90;;;;;;5069074;28;20099;-79
2021/10/14 10:53:13;;;;;;;6.97;2.20;;;11.30;92.70;;;;;;5069462;28;20086;-79
2021/10/14 10:55:46;;;;;;;5.78;2.30;;;11.40;92.40;;;;;;5069040;28;20135;-79
2021/10/14 10:58:15;;;;;;;4.38;2.00;;;11.40;92.20;;;;;;5070694;28;20139;-79
2021/10/14 11:00:45;;;;;;;4.25;1.85;;;11.50;92.50;;;;;;5068687;28;20547;-78
2021/10/14 11:03:19;;;;;;;3.95;1.95;;;11.70;92.20;;;;;;5069381;28;20550;-80
2021/10/14 11:05:51;;;;;;;5.45;1.80;;;11.80;92.20;;;;;;5068869;28;20143;-80
2021/10/14 11:08:21;;;;;;;4.68;2.17;;;11.90;91.50;;;;;;5069058;28;20482;-78
2021/10/14 11:10:52;;;;;;;4.15;2.00;;;12.00;91.20;;;;;;5070035;28;20094;-79
2021/10/14 11:13:21;;;;;;;3.80;1.80;;;12.10;90.30;;;;;;5068802;28;20140;-77
2021/10/14 11:15:51;;;;;;;4.72;1.95;;;12.20;90.40;;;;;;5068351;28;20135;-79
2021/10/14 11:18:19;;;;;;;2.83;1.38;;;12.30;90.30;;;;;;5069170;28;20143;-79
2021/10/14 11:20:53;;;;;;;3.42;1.45;;;12.40;89.50;;;;;;5068857;28;20405;-77
2021/10/14 11:23:22;;;;;;;3.47;1.40;;;12.40;90.20;;;;;;5069042;28;20139;-80
2021/10/14 11:26:09;;;;;;;4.28;1.80;;;12.60;90.30;;;;;;5069643;28;20048;-79
2021/10/14 11:29:00;;;;;;;5.18;2.03;;;12.70;89.90;;;;;;5068925;28;20087;-79
2021/10/14 11:31:35;;;;;;;4.45;1.67;;;12.80;89.80;;;;;;5068772;28;20132;-79
2021/10/14 11:34:08;;;;;;;3.47;1.58;;;12.90;89.30;;;;;;5068794;28;20053;-79
2021/10/14 11:36:37;;;;;;;4.60;1.50;;;13.00;87.40;;;;;;5070265;28;20131;-74
2021/10/14 11:39:08;;;;;;;4.05;1.35;;;13.10;87.70;;;;;;5069144;28;20086;-78
2021/10/14 11:41:38;;;;;;;4.05;1.73;;;13.20;88.10;;;;;;5068670;28;20100;-78
2021/10/14 11:44:08;;;;;;;4.20;1.67;;;13.30;87.20;;;;;;5070617;28;20533;-79
2021/10/14 11:46:38;;;;;;;4.32;1.58;;;13.40;86.50;;;;;;5073193;28;20127;-79
2021/10/14 11:49:07;;;;;;;4.10;1.40;;;13.50;84.40;;;;;;5073028;28;20147;-78
2021/10/14 11:51:35;;;;;;;3.15;1.38;;;13.50;83.20;;;;;;5077092;28;20155;-77
2021/10/14 11:54:06;;;;;;;4.60;1.60;;;13.60;82.20;;;;;;5073107;28;20052;-80
2021/10/14 11:56:44;;;;;;;4.50;1.40;;;13.70;82.30;;;;;;5073103;28;20780;-79
2021/10/14 11:59:11;;;;;;;3.63;1.40;;;13.80;82.40;;;;;;5072741;28;20090;-78
2021/10/14 12:01:50;;;;;;;5.07;1.25;;;14.00;81.30;;;;;;5072778;28;20074;-77
2021/10/14 12:04:20;;;;;;;3.17;1.30;;;14.10;81.20;;;;;;5072848;28;20068;-79
2021/10/14 12:06:49;;;;;;;3.45;1.55;;;14.20;81.00;;;;;;5074072;28;20135;-79
2021/10/14 12:09:17;;;;;;;3.38;1.40;;;14.30;80.30;;;;;;5072358;28;20083;-79
2021/10/14 12:11:46;;;;;;;5.13;1.88;;;14.30;79.10;;;;;;5072490;28;20124;-79
2021/10/14 12:14:24;;;;;;;3.03;1.33;;;14.30;78.30;;;;;;5073408;28;20132;-77
2021/10/14 12:17:06;;;;;;;3.22;1.50;;;14.30;78.00;;;;;;5082251;28;20052;-78
2021/10/14 12:19:40;;;;;;;3.10;1.50;;;14.30;78.10;;;;;;5092210;28;20055;-79
2021/10/14 12:22:08;;;;;;;3.25;1.55;;;14.30;78.10;;;;;;5072654;28;20140;-77
2021/10/14 12:24:56;;;;;;;4.13;1.48;;;14.30;77.80;;;;;;5072990;28;20140;-78
2021/10/14 12:27:25;;;;;;;2.83;1.30;;;14.30;78.60;;;;;;5073051;28;20086;-78
2021/10/14 12:29:52;;;;;;;3.40;1.35;;;14.40;78.80;;;;;;5072840;28;20537;-79
2021/10/14 12:32:22;;;;;;;3.40;1.40;;;14.60;79.30;;;;;;5080126;28;20135;-79
2021/10/14 12:34:57;;;;;;;3.95;1.50;;;14.70;78.40;;;;;;5093151;28;20048;-80
2021/10/14 12:37:31;;;;;;;;;;;14.80;78.00;;;;;;5091599;28;20043;-78
2021/10/14 12:40:15;;;;;;;2.90;1.33;;;15.00;78.50;;;;;;5091197;28;19977;-79
2021/10/14 12:45:54;;;;;;;4.45;1.50;;;15.30;78.30;;;;;;5085815;28;20088;-78
2021/10/14 12:48:32;;;;;;;3.85;1.40;;;15.50;78.50;;;;;;5072678;28;20139;-80
2021/10/14 12:51:07;;;;;;;3.67;1.42;;;15.80;76.60;;;;;;5072639;28;20056;-78
2021/10/14 12:53:41;;;;;;;3.45;1.38;;;16.00;74.30;;;;;;5072687;28;20059;-79
2021/10/14 12:56:09;;;;;;;3.03;1.30;;;16.10;73.70;;;;;;5071452;28;20072;-77
2021/10/14 12:58:38;;;;;;;4.15;1.40;;;16.40;75.10;;;;;;5072035;28;20464;-80
2021/10/14 13:01:07;;;;;;;3.88;1.60;;;16.70;75.10;;;;;;5073510;28;20485;-77
2021/10/14 13:03:35;;;;;;;3.83;1.33;;;17.10;73.80;;;;;;5071911;28;20118;-77
2021/10/14 13:06:03;;;;;;;4.70;1.40;;;17.50;72.90;;;;;;5072380;28;20092;-78
2021/10/14 13:08:35;;;;;;;4.80;1.35;;;17.60;70.50;;;;;;5072304;28;20136;-78
2021/10/14 13:11:03;;;;;;;3.03;1.20;;;18.10;69.20;;;;;;5071579;28;20052;-79
2021/10/14 13:13:31;;;;;;;4.28;1.30;;;18.20;67.00;;;;;;5071235;28;20139;-77